createdAt,value
2018-04-25T00:00:13.797Z,21.80
2018-04-25T00:01:13.812Z,22.00
2018-04-25T00:02:13.834Z,23.60
2018-04-25T00:03:13.855Z,23.40
2018-04-25T00:04:13.878Z,22.20
2018-04-25T00:05:13.898Z,21.10
2018-04-25T00:06:13.919Z,23.20
2018-04-25T00:07:13.941Z,21.50
2018-04-25T00:08:13.964Z,20.70
2018-04-25T00:09:13.983Z,21.20
2018-04-25T00:10:14.005Z,21.50
2018-04-25T00:11:14.027Z,21.30
2018-04-25T00:12:14.048Z,22.20
2018-04-25T00:13:14.072Z,21.60
2018-04-25T00:14:14.090Z,21.60
2018-04-25T00:15:14.112Z,21.20
2018-04-25T00:16:14.135Z,20.90
2018-04-25T00:17:14.155Z,21.80
2018-04-25T00:18:14.178Z,21.90
2018-04-25T00:19:14.201Z,24.40
2018-04-25T00:20:14.221Z,22.60
2018-04-25T00:21:14.241Z,21.80
2018-04-25T00:22:14.263Z,26.70
2018-04-25T00:23:14.284Z,22.30
2018-04-25T00:24:14.307Z,27.40
2018-04-25T00:25:14.326Z,23.50
2018-04-25T00:26:14.349Z,23.50
2018-04-25T00:27:14.370Z,27.50
2018-04-25T00:28:14.394Z,29.20
2018-04-25T00:29:14.412Z,23.90
2018-04-25T00:30:14.434Z,23.70
2018-04-25T00:31:14.456Z,22.40
2018-04-25T00:32:14.478Z,23.50
2018-04-25T00:33:14.498Z,23.10
2018-04-25T00:34:14.520Z,26.80
2018-04-25T00:35:14.542Z,65.40
2018-04-25T00:36:14.564Z,32.70
2018-04-25T00:37:14.586Z,23.30
2018-04-25T00:38:14.606Z,21.40
2018-04-25T00:39:14.628Z,23.10
2018-04-25T00:40:14.649Z,23.20
2018-04-25T00:41:14.671Z,24.80
2018-04-25T00:42:14.692Z,22.60
2018-04-25T00:43:14.714Z,22.20
2018-04-25T00:44:14.735Z,22.70
2018-04-25T00:45:14.757Z,23.70
2018-04-25T00:46:14.779Z,24.10
2018-04-25T00:47:14.805Z,23.70
2018-04-25T00:48:14.821Z,23.90
2018-04-25T00:49:14.842Z,22.80
2018-04-25T00:50:14.864Z,23.30
2018-04-25T00:51:14.885Z,23.90
2018-04-25T00:52:14.907Z,24.80
2018-04-25T00:53:14.927Z,24.10
2018-04-25T00:54:14.950Z,24.50
2018-04-25T00:55:14.970Z,22.10
2018-04-25T00:56:14.994Z,21.40
2018-04-25T00:57:15.014Z,22.40
2018-04-25T00:58:15.036Z,23.70
2018-04-25T00:59:15.059Z,22.70
2018-04-25T01:00:15.080Z,23.40
2018-04-25T01:01:15.100Z,23.40
2018-04-25T01:02:15.121Z,24.70
2018-04-25T01:03:15.142Z,24.10
2018-04-25T01:04:15.165Z,27.40
2018-04-25T01:05:15.185Z,23.30
2018-04-25T01:06:15.207Z,23.80
2018-04-25T01:07:15.234Z,25.80
2018-04-25T01:08:15.249Z,24.20
2018-04-25T01:09:15.273Z,24.90
2018-04-25T01:10:15.293Z,25.20
2018-04-25T01:11:15.314Z,23.10
2018-04-25T01:12:15.339Z,24.20
2018-04-25T01:13:15.357Z,22.10
2018-04-25T01:14:15.378Z,22.20
2018-04-25T01:15:15.400Z,24.80
2018-04-25T01:16:15.422Z,22.40
2018-04-25T01:17:15.445Z,24.70
2018-04-25T01:18:15.465Z,24.90
2018-04-25T01:19:15.486Z,22.90
2018-04-25T01:20:15.507Z,24.80
2018-04-25T01:21:15.528Z,26.10
2018-04-25T01:22:15.551Z,23.10
2018-04-25T01:23:15.571Z,25.00
2018-04-25T01:24:15.593Z,26.30
2018-04-25T01:25:15.614Z,22.60
2018-04-25T01:26:15.636Z,23.50
2018-04-25T01:27:15.662Z,23.10
2018-04-25T01:28:15.679Z,24.30
2018-04-25T01:29:15.700Z,24.20
2018-04-25T01:30:15.721Z,27.20
2018-04-25T01:31:15.743Z,22.40
2018-04-25T01:32:15.764Z,23.90
2018-04-25T01:33:15.786Z,23.70
2018-04-25T01:34:15.807Z,25.50
2018-04-25T01:35:15.830Z,24.00
2018-04-25T01:36:15.851Z,25.00
2018-04-25T01:37:15.871Z,27.30
2018-04-25T01:38:15.893Z,22.70
2018-04-25T01:39:15.914Z,23.70
2018-04-25T01:40:15.936Z,24.30
2018-04-25T01:41:15.958Z,23.40
2018-04-25T01:42:15.978Z,23.50
2018-04-25T01:43:16.001Z,22.40
2018-04-25T01:44:16.023Z,22.10
2018-04-25T01:45:16.043Z,23.10
2018-04-25T01:46:16.064Z,24.90
2018-04-25T01:47:16.086Z,22.00
2018-04-25T01:48:16.108Z,22.30
2018-04-25T01:49:16.128Z,22.10
2018-04-25T01:50:16.148Z,25.20
2018-04-25T01:51:16.172Z,22.50
2018-04-25T01:52:16.193Z,23.20
2018-04-25T01:53:16.217Z,23.30
2018-04-25T01:54:16.236Z,21.40
2018-04-25T01:55:16.262Z,23.80
2018-04-25T01:56:16.287Z,23.60
2018-04-25T01:57:16.299Z,21.40
2018-04-25T01:58:16.321Z,22.10
2018-04-25T01:59:16.343Z,23.90
2018-04-25T02:00:16.364Z,21.80
2018-04-25T02:01:16.385Z,19.80
2018-04-25T02:02:16.409Z,21.50
2018-04-25T02:03:16.430Z,22.00
2018-04-25T02:04:16.450Z,25.20
2018-04-25T02:05:16.471Z,22.20
2018-04-25T02:06:16.494Z,24.70
2018-04-25T02:07:16.514Z,19.80
2018-04-25T02:08:16.536Z,21.70
2018-04-25T02:09:16.557Z,19.80
2018-04-25T02:10:16.578Z,20.70
2018-04-25T02:11:16.603Z,20.70
2018-04-25T02:12:16.621Z,21.50
2018-04-25T02:13:16.642Z,18.40
2018-04-25T02:14:16.663Z,19.40
2018-04-25T02:15:16.687Z,22.10
2018-04-25T02:16:16.708Z,18.90
2018-04-25T02:17:16.727Z,17.60
2018-04-25T02:18:16.749Z,21.60
2018-04-25T02:19:16.771Z,20.70
2018-04-25T02:20:16.794Z,19.20
2018-04-25T02:21:16.814Z,17.30
2018-04-25T02:22:16.836Z,18.80
2018-04-25T02:23:16.856Z,16.70
2018-04-25T02:24:16.878Z,17.10
2018-04-25T02:25:16.899Z,18.30
2018-04-25T02:26:16.920Z,19.10
2018-04-25T02:27:16.942Z,19.30
2018-04-25T02:28:16.963Z,15.70
2018-04-25T02:29:16.984Z,16.00
2018-04-25T02:30:17.006Z,14.10
2018-04-25T02:31:17.027Z,16.30
2018-04-25T02:32:17.050Z,16.60
2018-04-25T02:33:17.070Z,15.60
2018-04-25T02:34:17.092Z,14.30
2018-04-25T02:35:17.113Z,16.10
2018-04-25T02:36:17.135Z,13.70
2018-04-25T02:37:17.155Z,12.60
2018-04-25T02:38:17.180Z,14.30
2018-04-25T02:39:17.199Z,15.40
2018-04-25T02:40:17.221Z,12.80
2018-04-25T02:41:17.242Z,13.50
2018-04-25T02:42:17.263Z,15.00
2018-04-25T02:43:17.303Z,13.70
2018-04-25T02:44:17.307Z,13.30
2018-04-25T02:45:17.629Z,13.60
2018-04-25T02:46:17.350Z,14.60
2018-04-25T02:47:17.376Z,12.70
2018-04-25T02:48:17.397Z,14.20
2018-04-25T02:49:17.424Z,12.90
2018-04-25T02:50:17.436Z,15.00
2018-04-25T02:51:17.458Z,15.90
2018-04-25T02:52:17.480Z,12.90
2018-04-25T02:53:17.501Z,14.00
2018-04-25T02:54:17.528Z,12.90
2018-04-25T02:55:17.544Z,16.20
2018-04-25T02:56:17.566Z,14.20
2018-04-25T02:57:17.588Z,17.90
2018-04-25T02:58:17.616Z,14.40
2018-04-25T02:59:17.633Z,15.80
2018-04-25T03:00:17.652Z,15.70
2018-04-25T03:01:17.674Z,13.40
2018-04-25T03:02:17.697Z,13.20
2018-04-25T03:03:17.717Z,13.70
2018-04-25T03:04:17.741Z,16.10
2018-04-25T03:05:17.759Z,15.50
2018-04-25T03:06:17.782Z,14.70
2018-04-25T03:07:17.804Z,15.20
2018-04-25T03:08:17.826Z,14.40
2018-04-25T03:09:17.846Z,13.80
2018-04-25T03:10:17.868Z,14.90
2018-04-25T03:11:17.896Z,15.80
2018-04-25T03:12:17.912Z,12.40
2018-04-25T03:13:17.934Z,14.80
2018-04-25T03:14:17.959Z,13.50
2018-04-25T03:15:17.977Z,13.50
2018-04-25T03:16:17.998Z,13.60
2018-04-25T03:17:18.019Z,13.50
2018-04-25T03:18:18.042Z,15.00
2018-04-25T03:19:18.064Z,11.50
2018-04-25T03:20:18.085Z,14.00
2018-04-25T03:21:18.106Z,13.00
2018-04-25T03:22:18.129Z,12.00
2018-04-25T03:23:18.151Z,12.80
2018-04-25T03:24:18.172Z,13.40
2018-04-25T03:25:18.193Z,12.30
2018-04-25T03:26:18.215Z,12.60
2018-04-25T03:27:18.239Z,14.00
2018-04-25T03:28:18.259Z,14.90
2018-04-25T03:29:18.280Z,12.60
2018-04-25T03:30:18.303Z,13.50
2018-04-25T03:31:18.324Z,15.20
2018-04-25T03:32:18.345Z,12.40
2018-04-25T03:33:18.366Z,12.90
2018-04-25T03:34:18.388Z,14.10
2018-04-25T03:35:18.412Z,13.90
2018-04-25T03:36:18.432Z,12.50
2018-04-25T03:37:18.455Z,12.10
2018-04-25T03:38:18.475Z,12.20
2018-04-25T03:39:18.497Z,15.30
2018-04-25T03:40:18.521Z,15.40
2018-04-25T03:41:18.540Z,13.60
2018-04-25T03:42:18.562Z,12.30
2018-04-25T03:43:18.584Z,13.10
2018-04-25T03:44:18.606Z,16.30
2018-04-25T03:45:18.626Z,14.90
2018-04-25T03:46:18.648Z,13.60
2018-04-25T03:47:18.673Z,13.30
2018-04-25T03:48:18.692Z,11.90
2018-04-25T03:49:18.713Z,12.40
2018-04-25T03:50:18.743Z,12.60
2018-04-25T03:51:18.757Z,12.40
2018-04-25T03:52:18.779Z,12.00
2018-04-25T03:53:18.799Z,14.80
2018-04-25T03:54:18.821Z,17.90
2018-04-25T03:55:18.843Z,12.70
2018-04-25T03:56:18.865Z,11.70
2018-04-25T03:57:18.886Z,13.00
2018-04-25T03:58:18.909Z,12.50
2018-04-25T03:59:18.931Z,13.10
2018-04-25T04:00:18.951Z,12.00
2018-04-25T04:01:18.972Z,12.40
2018-04-25T04:02:18.994Z,19.00
2018-04-25T04:03:19.015Z,12.20
2018-04-25T04:04:19.039Z,13.10
2018-04-25T04:05:19.059Z,11.90
2018-04-25T04:06:19.081Z,12.60
2018-04-25T04:07:19.102Z,12.10
2018-04-25T04:08:19.125Z,14.20
2018-04-25T04:09:19.145Z,12.70
2018-04-25T04:10:19.167Z,12.40
2018-04-25T04:11:19.190Z,12.80
2018-04-25T04:12:19.210Z,12.00
2018-04-25T04:13:19.230Z,18.00
2018-04-25T04:14:19.253Z,12.60
2018-04-25T04:15:19.275Z,12.30
2018-04-25T04:16:19.297Z,12.50
2018-04-25T04:17:19.318Z,12.50
2018-04-25T04:18:19.344Z,13.40
2018-04-25T04:19:19.361Z,13.00
2018-04-25T04:20:19.383Z,12.80
2018-04-25T04:21:19.407Z,12.80
2018-04-25T04:22:19.426Z,13.10
2018-04-25T04:23:19.449Z,12.30
2018-04-25T04:24:19.470Z,13.50
2018-04-25T04:25:19.490Z,13.10
2018-04-25T04:26:19.516Z,12.80
2018-04-25T04:27:19.534Z,13.10
2018-04-25T04:28:19.555Z,13.50
2018-04-25T04:29:19.577Z,13.50
2018-04-25T04:30:19.600Z,14.60
2018-04-25T04:31:19.620Z,12.70
2018-04-25T04:32:19.646Z,13.50
2018-04-25T04:33:19.663Z,14.00
2018-04-25T04:34:19.684Z,12.00
2018-04-25T04:35:19.707Z,13.10
2018-04-25T04:36:19.729Z,12.20
2018-04-25T04:37:19.750Z,12.90
2018-04-25T04:38:19.771Z,10.70
2018-04-25T04:39:19.793Z,16.20
2018-04-25T04:40:19.814Z,13.40
2018-04-25T04:41:19.835Z,13.70
2018-04-25T04:42:19.857Z,12.60
2018-04-25T04:43:19.879Z,11.40
2018-04-25T04:44:19.901Z,9.40
2018-04-25T04:45:19.921Z,8.40
2018-04-25T04:46:19.944Z,8.70
2018-04-25T04:47:19.967Z,9.60
2018-04-25T04:48:19.986Z,8.80
2018-04-25T04:49:20.007Z,8.30
2018-04-25T04:50:20.029Z,8.80
2018-04-25T04:51:20.055Z,8.00
2018-04-25T04:52:20.074Z,8.60
2018-04-25T04:53:20.093Z,7.90
2018-04-25T04:54:20.115Z,9.90
2018-04-25T04:55:20.137Z,8.70
2018-04-25T04:56:20.159Z,9.00
2018-04-25T04:57:20.179Z,8.40
2018-04-25T04:58:20.202Z,7.80
2018-04-25T04:59:20.221Z,8.40
2018-04-25T05:00:20.244Z,14.00
2018-04-25T05:01:20.270Z,9.30
2018-04-25T05:02:20.286Z,8.80
2018-04-25T05:03:20.313Z,10.30
2018-04-25T05:04:20.330Z,11.70
2018-04-25T05:05:20.351Z,8.80
2018-04-25T05:06:20.372Z,8.50
2018-04-25T05:07:20.394Z,9.80
2018-04-25T05:08:20.458Z,11.80
2018-04-25T05:09:20.437Z,12.10
2018-04-25T05:10:20.458Z,8.40
2018-04-25T05:11:20.481Z,8.00
2018-04-25T05:12:20.502Z,7.40
2018-04-25T05:13:20.523Z,7.70
2018-04-25T05:14:20.544Z,7.40
2018-04-25T05:15:20.566Z,13.80
2018-04-25T05:16:20.588Z,8.70
2018-04-25T05:17:20.609Z,11.10
2018-04-25T05:18:20.630Z,5.90
2018-04-25T05:19:20.652Z,6.20
2018-04-25T05:20:20.673Z,7.30
2018-04-25T05:21:20.695Z,6.50
2018-04-25T05:22:20.718Z,7.90
2018-04-25T05:23:20.738Z,10.90
2018-04-25T05:24:20.812Z,9.50
2018-04-25T05:25:20.780Z,9.00
2018-04-25T05:26:20.802Z,6.60
2018-04-25T05:27:20.824Z,8.00
2018-04-25T05:28:20.845Z,6.30
2018-04-25T05:29:20.867Z,12.30
2018-04-25T05:30:20.888Z,6.90
2018-04-25T05:31:20.910Z,9.90
2018-04-25T05:32:20.932Z,7.40
2018-04-25T05:33:20.952Z,7.30
2018-04-25T05:34:20.974Z,7.30
2018-04-25T05:35:20.996Z,5.80
2018-04-25T05:36:21.018Z,6.80
2018-04-25T05:37:21.041Z,6.30
2018-04-25T05:38:21.063Z,7.10
2018-04-25T05:39:21.082Z,6.50
2018-04-25T05:40:21.103Z,5.90
2018-04-25T05:41:21.126Z,6.90
2018-04-25T05:42:21.148Z,7.10
2018-04-25T05:43:21.167Z,8.20
2018-04-25T05:44:21.189Z,6.50
2018-04-25T05:45:21.210Z,7.50
2018-04-25T05:46:21.231Z,7.70
2018-04-25T05:47:21.253Z,8.20
2018-04-25T05:48:21.274Z,8.50
2018-04-25T05:49:21.294Z,8.40
2018-04-25T05:50:21.316Z,9.00
2018-04-25T05:51:21.338Z,9.10
2018-04-25T05:52:21.359Z,8.10
2018-04-25T05:53:21.378Z,7.60
2018-04-25T05:54:21.400Z,7.40
2018-04-25T05:55:21.421Z,12.30
2018-04-25T05:56:21.442Z,6.60
2018-04-25T05:57:21.462Z,5.40
2018-04-25T05:58:21.482Z,5.20
2018-04-25T05:59:21.504Z,4.80
2018-04-25T06:00:21.524Z,6.20
2018-04-25T06:01:21.544Z,5.60
2018-04-25T06:02:21.564Z,6.80
2018-04-25T06:03:21.586Z,5.70
2018-04-25T06:04:21.607Z,4.80
2018-04-25T06:05:21.627Z,5.00
2018-04-25T06:06:21.650Z,5.30
2018-04-25T06:07:21.668Z,5.00
2018-04-25T06:08:21.689Z,4.60
2018-04-25T06:09:21.708Z,5.70
2018-04-25T06:10:21.729Z,7.40
2018-04-25T06:11:21.750Z,3.60
2018-04-25T06:12:21.799Z,6.10
2018-04-25T06:13:21.790Z,6.00
2018-04-25T06:14:21.811Z,4.00
2018-04-25T06:15:21.833Z,3.90
2018-04-25T06:16:21.853Z,3.80
2018-04-25T06:17:21.873Z,3.90
2018-04-25T06:18:21.894Z,3.80
2018-04-25T06:19:21.914Z,5.50
2018-04-25T06:20:22.082Z,4.40
2018-04-25T06:21:21.956Z,3.60
2018-04-25T06:22:21.976Z,4.20
2018-04-25T06:23:21.997Z,4.10
2018-04-25T06:24:22.017Z,4.30
2018-04-25T06:25:22.037Z,4.40
2018-04-25T06:26:22.059Z,4.80
2018-04-25T06:27:22.282Z,5.20
2018-04-25T06:28:22.100Z,4.80
2018-04-25T06:29:22.120Z,6.20
2018-04-25T06:30:22.140Z,5.30
2018-04-25T06:31:22.162Z,5.00
2018-04-25T06:32:22.182Z,5.90
2018-04-25T06:33:22.202Z,5.40
2018-04-25T06:34:22.222Z,5.70
2018-04-25T06:35:22.246Z,5.30
2018-04-25T06:36:22.264Z,6.00
2018-04-25T06:37:22.284Z,5.20
2018-04-25T06:38:22.305Z,8.80
2018-04-25T06:39:22.405Z,5.30
2018-04-25T06:40:22.347Z,5.40
2018-04-25T06:41:22.468Z,5.20
2018-04-25T06:42:22.389Z,6.50
2018-04-25T06:43:22.409Z,6.10
2018-04-25T06:44:22.431Z,6.20
2018-04-25T06:45:22.450Z,5.70
2018-04-25T06:46:22.471Z,5.70
2018-04-25T06:47:22.493Z,5.40
2018-04-25T06:48:22.514Z,5.90
2018-04-25T06:49:22.535Z,5.10
2018-04-25T06:50:22.555Z,5.90
2018-04-25T06:51:22.577Z,5.10
2018-04-25T06:52:22.597Z,5.10
2018-04-25T06:53:22.617Z,5.70
2018-04-25T06:54:22.639Z,6.20
2018-04-25T06:55:22.659Z,6.40
2018-04-25T06:56:22.681Z,6.80
2018-04-25T06:57:22.701Z,5.70
2018-04-25T06:58:22.722Z,5.70
2018-04-25T06:59:22.745Z,5.20
2018-04-25T07:00:22.765Z,5.20
2018-04-25T07:01:22.786Z,6.00
2018-04-25T07:02:22.807Z,6.80
2018-04-25T07:03:22.828Z,5.40
2018-04-25T07:04:22.849Z,4.80
2018-04-25T07:05:22.870Z,5.30
2018-04-25T07:06:22.892Z,5.60
2018-04-25T07:07:22.913Z,6.70
2018-04-25T07:08:22.935Z,5.50
2018-04-25T07:09:22.956Z,5.90
2018-04-25T07:10:22.979Z,5.00
2018-04-25T07:11:23.003Z,5.80
2018-04-25T07:12:23.021Z,5.30
2018-04-25T07:13:23.119Z,5.30
2018-04-25T07:14:23.067Z,6.30
2018-04-25T07:15:23.085Z,4.40
2018-04-25T07:16:23.108Z,4.50
2018-04-25T07:17:23.145Z,4.80
2018-04-25T07:18:23.151Z,6.00
2018-04-25T07:19:23.173Z,4.40
2018-04-25T07:20:23.596Z,4.50
2018-04-25T07:21:23.221Z,3.70
2018-04-25T07:22:23.239Z,4.20
2018-04-25T07:23:23.260Z,4.10
2018-04-25T07:24:23.282Z,9.60
2018-04-25T07:25:23.303Z,4.50
2018-04-25T07:26:23.326Z,4.80
2018-04-25T07:27:23.347Z,5.10
2018-04-25T07:28:23.370Z,4.80
2018-04-25T07:29:23.472Z,5.50
2018-04-25T07:30:23.414Z,6.70
2018-04-25T07:31:23.435Z,4.70
2018-04-25T07:32:23.459Z,7.10
2018-04-25T07:33:23.730Z,7.10
2018-04-25T07:34:23.501Z,6.60
2018-04-25T07:35:23.545Z,5.10
2018-04-25T07:36:23.545Z,4.80
2018-04-25T07:37:23.566Z,5.60
2018-04-25T07:38:23.589Z,8.40
2018-04-25T07:39:23.613Z,10.80
2018-04-25T07:40:23.633Z,14.50
2018-04-25T07:41:23.655Z,10.60
2018-04-25T07:42:23.677Z,6.50
2018-04-25T07:43:23.699Z,11.40
2018-04-25T07:44:23.721Z,7.00
2018-04-25T07:45:23.743Z,6.00
2018-04-25T07:46:23.764Z,10.90
2018-04-25T07:47:23.786Z,5.80
2018-04-25T07:48:23.809Z,7.30
2018-04-25T07:49:23.833Z,6.80
2018-04-25T07:50:23.853Z,5.60
2018-04-25T07:51:23.874Z,12.90
2018-04-25T07:52:23.896Z,5.70
2018-04-25T07:53:23.922Z,5.90
2018-04-25T07:54:23.939Z,6.80
2018-04-25T07:55:23.961Z,6.20
2018-04-25T07:56:23.983Z,6.00
2018-04-25T07:57:24.004Z,6.30
2018-04-25T07:58:24.025Z,6.80
2018-04-25T07:59:24.047Z,6.80
2018-04-25T08:00:24.068Z,7.80
2018-04-25T08:01:24.090Z,6.60
2018-04-25T08:02:24.111Z,7.40
2018-04-25T08:03:24.132Z,7.00
2018-04-25T08:04:24.154Z,6.40
2018-04-25T08:05:24.226Z,7.40
2018-04-25T08:06:24.195Z,7.30
2018-04-25T08:07:24.217Z,6.40
2018-04-25T08:08:24.238Z,8.10
2018-04-25T08:09:24.259Z,8.30
2018-04-25T08:10:24.280Z,8.10
2018-04-25T08:11:24.301Z,6.70
2018-04-25T08:12:24.413Z,7.50
2018-04-25T08:13:24.343Z,6.50
2018-04-25T08:14:24.367Z,7.30
2018-04-25T08:15:24.386Z,7.20
2018-04-25T08:16:24.809Z,6.80
2018-04-25T08:17:24.427Z,7.10
2018-04-25T08:18:24.448Z,7.00
2018-04-25T08:19:24.470Z,5.90
2018-04-25T08:20:24.491Z,6.30
2018-04-25T08:21:24.512Z,7.40
2018-04-25T08:22:24.537Z,8.00
2018-04-25T08:23:24.554Z,7.10
2018-04-25T08:24:24.575Z,6.40
2018-04-25T08:25:24.597Z,5.70
2018-04-25T08:26:24.617Z,15.30
2018-04-25T08:27:24.639Z,8.90
2018-04-25T08:28:24.661Z,7.10
2018-04-25T08:29:24.682Z,7.10
2018-04-25T08:30:24.704Z,6.80
2018-04-25T08:31:24.724Z,6.00
2018-04-25T08:32:24.746Z,6.50
2018-04-25T08:33:24.768Z,9.00
2018-04-25T08:34:24.799Z,7.30
2018-04-25T08:35:24.813Z,9.20
2018-04-25T08:36:24.832Z,6.30
2018-04-25T08:37:24.851Z,7.10
2018-04-25T08:38:24.873Z,7.50
2018-04-25T08:39:24.907Z,7.10
2018-04-25T08:40:24.916Z,7.40
2018-04-25T08:41:24.937Z,8.20
2018-04-25T08:42:24.959Z,7.40
2018-04-25T08:43:24.981Z,7.40
2018-04-25T08:44:25.003Z,5.60
2018-04-25T08:45:25.023Z,6.60
2018-04-25T08:46:25.044Z,8.30
2018-04-25T08:47:25.066Z,7.60
2018-04-25T08:48:25.088Z,7.90
2018-04-25T08:49:25.109Z,6.60
2018-04-25T08:50:25.130Z,5.40
2018-04-25T08:51:25.153Z,8.20
2018-04-25T08:52:25.175Z,4.70
2018-04-25T08:53:25.199Z,5.60
2018-04-25T08:54:25.218Z,4.20
2018-04-25T08:55:25.239Z,5.00
2018-04-25T08:56:25.273Z,5.70
2018-04-25T08:57:25.283Z,5.80
2018-04-25T08:58:25.304Z,7.20
2018-04-25T08:59:25.325Z,4.20
2018-04-25T09:00:25.699Z,5.70
2018-04-25T09:01:25.372Z,5.10
2018-04-25T09:02:25.390Z,6.20
2018-04-25T09:03:25.412Z,5.70
2018-04-25T09:04:25.438Z,4.80
2018-04-25T09:05:25.456Z,4.50
2018-04-25T09:06:25.481Z,5.60
2018-04-25T09:07:25.496Z,5.00
2018-04-25T09:08:25.518Z,4.20
2018-04-25T09:09:25.540Z,6.20
2018-04-25T09:10:25.563Z,5.00
2018-04-25T09:11:25.582Z,6.00
2018-04-25T09:12:25.603Z,4.50
2018-04-25T09:13:25.624Z,3.80
2018-04-25T09:14:25.646Z,4.80
2018-04-25T09:15:25.709Z,4.70
2018-04-25T09:16:25.689Z,3.70
2018-04-25T09:17:25.710Z,4.60
2018-04-25T09:18:25.732Z,6.20
2018-04-25T09:19:25.754Z,4.10
2018-04-25T09:20:25.809Z,3.20
2018-04-25T09:21:25.798Z,4.70
2018-04-25T09:22:25.819Z,4.90
2018-04-25T09:23:25.840Z,4.60
2018-04-25T09:24:25.924Z,3.80
2018-04-25T09:25:25.882Z,6.00
2018-04-25T09:26:25.903Z,3.20
2018-04-25T09:27:25.926Z,5.60
2018-04-25T09:28:25.947Z,3.90
2018-04-25T09:29:25.970Z,3.40
2018-04-25T09:30:25.990Z,3.60
2018-04-25T09:31:26.012Z,3.10
2018-04-25T09:32:26.035Z,3.90
2018-04-25T09:33:26.055Z,4.20
2018-04-25T09:34:26.111Z,3.80
2018-04-25T09:35:26.099Z,4.50
2018-04-25T09:36:26.120Z,4.80
2018-04-25T09:37:26.141Z,4.30
2018-04-25T09:38:26.163Z,4.80
2018-04-25T09:39:26.187Z,3.00
2018-04-25T09:40:26.212Z,4.10
2018-04-25T09:41:26.242Z,3.70
2018-04-25T09:42:26.250Z,3.50
2018-04-25T09:43:26.272Z,4.10
2018-04-25T09:44:26.294Z,6.80
2018-04-25T09:45:26.316Z,3.70
2018-04-25T09:46:26.341Z,2.90
2018-04-25T09:47:26.360Z,3.80
2018-04-25T09:48:26.385Z,3.70
2018-04-25T09:49:26.402Z,3.70
2018-04-25T09:50:26.425Z,3.70
2018-04-25T09:51:26.446Z,4.90
2018-04-25T09:52:26.468Z,3.60
2018-04-25T09:53:26.489Z,3.80
2018-04-25T09:54:26.511Z,3.60
2018-04-25T09:55:26.532Z,3.40
2018-04-25T09:56:26.556Z,4.20
2018-04-25T09:57:26.619Z,4.00
2018-04-25T09:58:26.597Z,5.10
2018-04-25T09:59:26.619Z,4.90
2018-04-25T10:00:26.641Z,3.50
2018-04-25T10:01:26.662Z,5.40
2018-04-25T10:02:26.684Z,2.80
2018-04-25T10:03:26.706Z,3.10
2018-04-25T10:04:26.728Z,7.60
2018-04-25T10:05:26.750Z,5.20
2018-04-25T10:06:26.771Z,2.60
2018-04-25T10:07:26.793Z,3.90
2018-04-25T10:08:26.816Z,6.00
2018-04-25T10:09:26.836Z,3.90
2018-04-25T10:10:26.859Z,3.90
2018-04-25T10:11:26.881Z,3.50
2018-04-25T10:12:26.905Z,2.90
2018-04-25T10:13:26.923Z,4.70
2018-04-25T10:14:26.944Z,2.80
2018-04-25T10:15:26.967Z,3.30
2018-04-25T10:16:26.989Z,4.30
2018-04-25T10:17:27.010Z,2.80
2018-04-25T10:18:27.031Z,4.50
2018-04-25T10:19:27.054Z,4.10
2018-04-25T10:20:27.074Z,3.30
2018-04-25T10:21:27.100Z,2.90
2018-04-25T10:22:27.116Z,3.70
2018-04-25T10:23:27.138Z,4.20
2018-04-25T10:24:27.159Z,5.80
2018-04-25T10:25:27.180Z,3.70
2018-04-25T10:26:27.202Z,4.10
2018-04-25T10:27:27.222Z,5.40
2018-04-25T10:28:27.244Z,2.60
2018-04-25T10:29:27.265Z,2.90
2018-04-25T10:30:27.288Z,4.50
2018-04-25T10:31:27.308Z,3.80
2018-04-25T10:32:27.331Z,3.10
2018-04-25T10:33:27.351Z,4.40
2018-04-25T10:34:27.373Z,3.80
2018-04-25T10:35:27.398Z,3.80
2018-04-25T10:36:27.416Z,5.00
2018-04-25T10:37:27.436Z,3.20
2018-04-25T10:38:27.508Z,4.10
2018-04-25T10:39:27.480Z,7.70
2018-04-25T10:40:27.542Z,4.00
2018-04-25T10:41:27.524Z,5.40
2018-04-25T10:42:27.543Z,5.00
2018-04-25T10:43:27.566Z,4.70
2018-04-25T10:44:27.590Z,5.30
2018-04-25T10:45:27.608Z,5.10
2018-04-25T10:46:27.629Z,5.30
2018-04-25T10:47:27.652Z,4.50
2018-04-25T10:48:27.674Z,4.50
2018-04-25T10:49:27.694Z,4.00
2018-04-25T10:50:27.715Z,3.50
2018-04-25T10:51:27.738Z,3.40
2018-04-25T10:52:27.758Z,4.00
2018-04-25T10:53:27.779Z,5.00
2018-04-25T10:54:27.801Z,5.60
2018-04-25T10:55:27.825Z,4.60
2018-04-25T10:56:27.844Z,4.80
2018-04-25T10:57:27.868Z,6.60
2018-04-25T10:58:27.886Z,4.30
2018-04-25T10:59:27.908Z,6.60
2018-04-25T11:00:27.934Z,4.70
2018-04-25T11:01:27.952Z,4.80
2018-04-25T11:02:28.017Z,5.90
2018-04-25T11:03:27.995Z,7.00
2018-04-25T11:04:28.030Z,6.60
2018-04-25T11:05:28.038Z,5.50
2018-04-25T11:06:28.060Z,4.00
2018-04-25T11:07:28.170Z,7.70
2018-04-25T11:08:28.104Z,3.00
2018-04-25T11:09:28.125Z,4.10
2018-04-25T11:10:28.147Z,4.30
2018-04-25T11:11:28.169Z,4.20
2018-04-25T11:12:28.191Z,6.20
2018-04-25T11:13:28.212Z,8.00
2018-04-25T11:14:28.234Z,3.30
2018-04-25T11:15:28.257Z,4.30
2018-04-25T11:16:28.281Z,3.10
2018-04-25T11:17:28.300Z,4.10
2018-04-25T11:18:28.627Z,4.10
2018-04-25T11:19:28.345Z,4.50
2018-04-25T11:20:28.448Z,3.60
2018-04-25T11:21:28.388Z,6.70
2018-04-25T11:22:28.410Z,3.40
2018-04-25T11:23:28.433Z,6.60
2018-04-25T11:24:28.454Z,2.90
2018-04-25T11:25:28.475Z,4.70
2018-04-25T11:26:28.520Z,5.00
2018-04-25T11:27:28.520Z,5.70
2018-04-25T11:28:28.541Z,3.70
2018-04-25T11:29:28.562Z,4.80
2018-04-25T11:30:28.585Z,5.10
2018-04-25T11:31:28.607Z,5.50
2018-04-25T11:32:28.629Z,7.40
2018-04-25T11:33:28.650Z,5.20
2018-04-25T11:34:28.671Z,3.90
2018-04-25T11:35:28.694Z,4.60
2018-04-25T11:36:28.714Z,4.80
2018-04-25T11:37:28.735Z,5.40
2018-04-25T11:38:28.757Z,4.20
2018-04-25T11:39:28.779Z,3.50
2018-04-25T11:40:28.800Z,8.10
2018-04-25T11:41:28.820Z,5.60
2018-04-25T11:43:28.867Z,3.30
2018-04-25T11:44:28.886Z,4.10
2018-04-25T11:45:28.907Z,5.60
2018-04-25T11:46:28.930Z,4.60
2018-04-25T11:47:28.958Z,3.80
2018-04-25T11:48:28.971Z,5.40
2018-04-25T11:49:28.992Z,5.30
2018-04-25T11:50:29.016Z,4.80
2018-04-25T11:51:29.039Z,5.00
2018-04-25T11:52:29.059Z,3.30
2018-04-25T11:53:29.077Z,6.10
2018-04-25T11:54:29.102Z,3.80
2018-04-25T11:55:29.120Z,4.60
2018-04-25T11:56:29.142Z,4.90
2018-04-25T11:57:29.164Z,4.10
2018-04-25T11:58:29.184Z,4.60
2018-04-25T11:59:29.206Z,3.10
2018-04-25T12:00:29.227Z,3.90
2018-04-25T12:01:29.248Z,3.90
2018-04-25T12:02:29.270Z,5.10
2018-04-25T12:03:29.291Z,4.70
2018-04-25T12:04:29.313Z,3.60
2018-04-25T12:05:29.335Z,4.10
2018-04-25T12:06:29.358Z,3.50
2018-04-25T12:07:29.376Z,6.10
2018-04-25T12:08:29.397Z,3.90
2018-04-25T12:09:29.419Z,4.00
2018-04-25T12:10:29.438Z,5.40
2018-04-25T12:11:29.464Z,4.40
2018-04-25T12:12:29.482Z,3.90
2018-04-25T12:13:29.502Z,4.60
2018-04-25T12:14:29.523Z,4.80
2018-04-25T12:15:29.545Z,6.70
2018-04-25T12:16:29.567Z,7.60
2018-04-25T12:17:29.588Z,4.40
2018-04-25T12:18:29.608Z,5.70
2018-04-25T12:19:29.629Z,5.50
2018-04-25T12:20:29.650Z,5.40
2018-04-25T12:21:29.671Z,5.70
2018-04-25T12:22:29.691Z,5.50
2018-04-25T12:23:29.713Z,4.10
2018-04-25T12:24:29.735Z,5.40
2018-04-25T12:25:29.754Z,3.30
2018-04-25T12:26:29.776Z,6.80
2018-04-25T12:27:29.797Z,5.70
2018-04-25T12:28:29.818Z,4.30
2018-04-25T12:29:29.838Z,5.90
2018-04-25T12:30:29.864Z,4.40
2018-04-25T12:31:29.881Z,4.90
2018-04-25T12:32:29.905Z,4.70
2018-04-25T12:33:29.922Z,5.80
2018-04-25T12:34:30.244Z,5.00
2018-04-25T12:35:29.965Z,5.70
2018-04-25T12:36:29.988Z,5.10
2018-04-25T12:37:30.008Z,7.10
2018-04-25T12:38:30.030Z,7.20
2018-04-25T12:39:30.051Z,6.70
2018-04-25T12:40:30.075Z,5.70
2018-04-25T12:41:30.133Z,5.60
2018-04-25T12:42:30.114Z,6.20
2018-04-25T12:43:30.136Z,8.10
2018-04-25T12:44:30.157Z,7.90
2018-04-25T12:45:30.177Z,7.00
2018-04-25T12:46:30.199Z,6.20
2018-04-25T12:47:30.220Z,7.30
2018-04-25T12:48:30.242Z,9.20
2018-04-25T12:49:30.264Z,6.90
2018-04-25T12:50:30.286Z,9.90
2018-04-25T12:51:30.307Z,5.50
2018-04-25T12:52:30.328Z,5.20
2018-04-25T12:53:30.351Z,5.20
2018-04-25T12:54:30.373Z,6.10
2018-04-25T12:55:30.397Z,4.60
2018-04-25T12:56:30.415Z,6.80
2018-04-25T12:57:30.439Z,5.90
2018-04-25T12:58:30.458Z,7.00
2018-04-25T12:59:30.480Z,7.30
2018-04-25T13:00:30.502Z,7.60
2018-04-25T13:01:30.525Z,6.90
2018-04-25T13:02:30.546Z,8.30
2018-04-25T13:03:30.568Z,8.10
2018-04-25T13:04:30.590Z,7.40
2018-04-25T13:05:30.612Z,5.80
2018-04-25T13:06:30.633Z,5.10
2018-04-25T13:07:30.657Z,9.50
2018-04-25T13:08:30.690Z,7.20
2018-04-25T13:09:30.699Z,5.30